createdAt,value
2022-10-18T06:15:24.311Z,1017.56
2022-10-18T06:25:24.265Z,1017.53
2022-10-18T06:35:24.349Z,1017.51
2022-10-18T06:45:24.330Z,1017.55
2022-10-18T06:55:24.396Z,1017.53
2022-10-18T07:05:24.393Z,1017.64
2022-10-18T07:15:24.435Z,1017.66
2022-10-18T07:25:27.090Z,1017.63
2022-10-18T07:35:24.365Z,1017.54
2022-10-18T07:45:24.485Z,1017.59
2022-10-18T07:55:24.493Z,1017.52
2022-10-18T08:05:24.429Z,1017.46
2022-10-18T08:15:24.431Z,1017.28
2022-10-18T08:25:24.426Z,1017.32
2022-10-18T08:35:24.408Z,1017.33
2022-10-18T08:45:41.110Z,1017.32
2022-10-18T08:55:24.391Z,1017.52
2022-10-18T09:05:24.454Z,1017.73
2022-10-18T09:15:24.485Z,1017.83
2022-10-18T09:25:24.406Z,1017.93
2022-10-18T09:35:24.481Z,1018.05
2022-10-18T09:45:24.431Z,1018.33
2022-10-18T09:55:24.396Z,1018.57
2022-10-18T10:05:24.585Z,1018.64
2022-10-18T10:15:24.542Z,1018.79
2022-10-18T10:25:24.515Z,1018.92
2022-10-18T10:35:41.359Z,1019.19
2022-10-18T10:45:24.580Z,1019.24
2022-10-18T10:55:34.828Z,1019.25
2022-10-18T11:05:24.575Z,1019.30
2022-10-18T11:15:24.535Z,1019.20
2022-10-18T11:25:24.764Z,1019.00
2022-10-18T11:35:24.609Z,1018.86
2022-10-18T11:45:24.598Z,1018.75
2022-10-18T11:55:27.687Z,1018.82
2022-10-18T12:05:25.028Z,1018.77
2022-10-18T12:15:24.527Z,1018.75
2022-10-18T12:25:24.628Z,1018.66
2022-10-18T12:35:24.665Z,1018.64
2022-10-18T12:45:24.814Z,1018.55
2022-10-18T12:55:24.595Z,1018.59
2022-10-18T13:05:41.049Z,1018.61
2022-10-18T13:15:26.562Z,1018.64
2022-10-18T13:25:24.560Z,1018.60
2022-10-18T13:35:24.607Z,1018.68
2022-10-18T13:45:24.700Z,1018.73
2022-10-18T13:55:24.603Z,1018.80
2022-10-18T14:05:25.678Z,1018.96
2022-10-18T14:15:24.618Z,1019.04
2022-10-18T14:25:24.619Z,1019.10
2022-10-18T14:35:32.498Z,1019.17
2022-10-18T14:45:24.642Z,1019.14
2022-10-18T14:55:24.623Z,1019.13
2022-10-18T15:05:24.525Z,1019.17
2022-10-18T15:15:24.651Z,1019.07
2022-10-18T15:25:27.994Z,1019.18
2022-10-18T15:35:26.356Z,1019.25
2022-10-18T15:45:24.766Z,1019.41
2022-10-18T15:55:24.656Z,1019.44
2022-10-18T16:05:24.754Z,1019.49
2022-10-18T16:15:24.668Z,1019.57
2022-10-18T16:25:24.893Z,1019.68
2022-10-18T16:35:24.883Z,1019.71
2022-10-18T16:45:24.890Z,1019.77
2022-10-18T16:55:25.053Z,1019.88
2022-10-18T17:05:24.931Z,1020.09
2022-10-18T17:15:25.192Z,1020.09
2022-10-18T17:25:25.009Z,1020.27
2022-10-18T17:35:24.931Z,1020.35
2022-10-18T17:45:24.931Z,1020.40
2022-10-18T17:55:24.979Z,1020.53
2022-10-18T18:05:24.930Z,1020.66
2022-10-18T18:15:24.939Z,1020.42
2022-10-18T18:25:24.824Z,1020.58
2022-10-18T18:35:24.993Z,1020.71
2022-10-18T18:45:25.206Z,1020.56
2022-10-18T18:55:25.343Z,1020.61
2022-10-18T19:05:25.486Z,1020.43
2022-10-18T19:15:25.550Z,1020.46
